createdAt,value
2019-05-29T14:58:01.446Z,26.28
2019-05-29T15:00:33.460Z,26.19
2019-05-29T15:03:05.487Z,26.21
2019-05-29T15:05:37.513Z,26.33
2019-05-29T15:08:10.036Z,26.35
2019-05-29T15:10:42.703Z,26.41
2019-05-29T15:13:15.569Z,26.36
2019-05-29T15:15:47.864Z,26.38
2019-05-29T15:18:20.312Z,26.31
2019-05-29T15:20:52.522Z,26.32
2019-05-29T15:23:24.685Z,26.32
2019-05-29T15:25:57.116Z,26.33
2019-05-29T15:28:29.251Z,26.29
2019-05-29T15:31:02.451Z,26.33
2019-05-29T15:33:34.771Z,26.29
2019-05-29T15:36:08.663Z,26.28
2019-05-29T15:38:41.099Z,26.26
2019-05-29T15:41:13.402Z,26.22
2019-05-29T15:43:49.185Z,26.20
2019-05-29T15:46:19.610Z,26.17
2019-05-29T15:48:52.658Z,26.12
2019-05-29T15:51:24.615Z,26.09
2019-05-29T15:53:56.929Z,26.05
2019-05-29T15:56:29.410Z,26.00
2019-05-29T15:59:01.610Z,25.94
2019-05-29T16:01:34.117Z,25.92
2019-05-29T16:04:07.607Z,25.88
2019-05-29T16:06:39.977Z,25.85
2019-05-29T16:09:12.202Z,25.78
2019-05-29T16:11:44.386Z,25.73
2019-05-29T16:14:16.782Z,25.69
2019-05-29T16:16:49.301Z,25.63
2019-05-29T16:19:22.576Z,25.60
2019-05-29T16:21:55.024Z,25.55
2019-05-29T16:24:27.355Z,25.50
2019-05-29T16:27:08.317Z,25.42
2019-05-29T16:29:33.440Z,25.39
2019-05-29T16:32:05.691Z,25.28
2019-05-29T16:34:37.995Z,25.27
2019-05-29T16:37:11.201Z,25.24
2019-05-29T16:39:43.535Z,25.18
2019-05-29T16:42:15.929Z,25.10
2019-05-29T16:44:47.962Z,25.05
2019-05-29T16:47:20.499Z,25.02
2019-05-29T16:49:52.649Z,24.93
2019-05-29T16:52:25.701Z,24.93
2019-05-29T16:54:57.755Z,24.91
2019-05-29T16:57:30.507Z,24.85
2019-05-29T17:00:02.618Z,24.78
2019-05-29T17:02:34.799Z,24.70
2019-05-29T17:05:07.233Z,24.68
2019-05-29T17:07:39.690Z,24.68
2019-05-29T17:10:14.290Z,24.62
2019-05-29T17:12:47.635Z,24.54
2019-05-29T17:15:20.578Z,24.44
2019-05-29T17:17:53.022Z,24.44
2019-05-29T17:20:42.614Z,24.39
2019-05-29T17:23:15.307Z,24.30
2019-05-29T17:25:47.486Z,24.16
2019-05-29T17:28:23.225Z,24.14
2019-05-29T17:30:53.805Z,24.09
2019-05-29T17:33:25.987Z,24.07
2019-05-29T17:35:58.256Z,24.01
2019-05-29T17:38:30.283Z,23.95
2019-05-29T17:41:02.602Z,23.89
2019-05-29T17:43:34.995Z,23.84
2019-05-29T17:46:07.363Z,23.79
2019-05-29T17:48:39.817Z,23.74
2019-05-29T17:51:12.052Z,23.66
2019-05-29T17:53:44.101Z,23.62
2019-05-29T17:56:26.385Z,23.57
2019-05-29T17:58:50.250Z,23.52
2019-05-29T18:01:24.251Z,23.48
2019-05-29T18:03:58.029Z,23.47
2019-05-29T18:06:30.350Z,23.40
2019-05-29T18:09:02.774Z,23.36
2019-05-29T18:11:36.559Z,23.34
2019-05-29T18:14:08.802Z,23.33
2019-05-29T18:16:42.244Z,23.33
2019-05-29T18:19:15.584Z,23.33
2019-05-29T18:21:47.913Z,23.30
2019-05-29T18:24:20.046Z,23.30
2019-05-29T18:26:52.257Z,23.31
2019-05-29T18:29:24.602Z,23.30
2019-05-29T18:31:56.742Z,23.22
2019-05-29T18:34:29.605Z,23.16
2019-05-29T18:37:02.280Z,23.09
2019-05-29T18:39:34.704Z,23.06
2019-05-29T18:42:06.966Z,23.07
2019-05-29T18:44:39.317Z,23.02
